sensor_id;sensor_type;location;lat;lon;timestamp;temperature;humidity
64650;HTU21D;51061;45.258;38.112;2022-08-01T00:01:09;25.69;57.40
64650;HTU21D;51061;45.258;38.112;2022-08-01T00:03:35;25.66;57.48
64650;HTU21D;51061;45.258;38.112;2022-08-01T00:06:01;25.64;57.64
64650;HTU21D;51061;45.258;38.112;2022-08-01T00:08:27;25.61;57.76
64650;HTU21D;51061;45.258;38.112;2022-08-01T00:10:53;25.57;57.82
64650;HTU21D;51061;45.258;38.112;2022-08-01T00:13:19;25.52;57.90
64650;HTU21D;51061;45.258;38.112;2022-08-01T00:15:45;25.48;58.09
64650;HTU21D;51061;45.258;38.112;2022-08-01T00:18:11;25.45;58.22
64650;HTU21D;51061;45.258;38.112;2022-08-01T00:20:37;25.42;58.34
64650;HTU21D;51061;45.258;38.112;2022-08-01T00:23:03;25.37;58.46
64650;HTU21D;51061;45.258;38.112;2022-08-01T00:25:29;25.36;58.57
64650;HTU21D;51061;45.258;38.112;2022-08-01T00:27:55;25.32;58.66
64650;HTU21D;51061;45.258;38.112;2022-08-01T00:30:21;25.29;58.68
64650;HTU21D;51061;45.258;38.112;2022-08-01T00:32:47;25.27;58.80
64650;HTU21D;51061;45.258;38.112;2022-08-01T00:35:13;25.23;58.91
64650;HTU21D;51061;45.258;38.112;2022-08-01T00:37:40;25.20;59.01
64650;HTU21D;51061;45.258;38.112;2022-08-01T00:40:06;25.17;59.11
64650;HTU21D;51061;45.258;38.112;2022-08-01T00:42:33;25.12;59.28
64650;HTU21D;51061;45.258;38.112;2022-08-01T00:44:59;25.09;59.38
64650;HTU21D;51061;45.258;38.112;2022-08-01T00:47:25;25.06;59.44
64650;HTU21D;51061;45.258;38.112;2022-08-01T00:49:52;25.05;59.51
64650;HTU21D;51061;45.258;38.112;2022-08-01T00:52:18;25.01;59.62
64650;HTU21D;51061;45.258;38.112;2022-08-01T00:54:45;24.95;59.71
64650;HTU21D;51061;45.258;38.112;2022-08-01T00:57:11;24.94;59.79
64650;HTU21D;51061;45.258;38.112;2022-08-01T00:59:39;24.90;59.87
64650;HTU21D;51061;45.258;38.112;2022-08-01T01:02:05;24.86;59.98
64650;HTU21D;51061;45.258;38.112;2022-08-01T01:04:31;24.86;60.09
64650;HTU21D;51061;45.258;38.112;2022-08-01T01:07:17;24.83;59.99
64650;HTU21D;51061;45.258;38.112;2022-08-01T01:10:11;24.76;60.13
64650;HTU21D;51061;45.258;38.112;2022-08-01T01:12:36;24.72;60.31
64650;HTU21D;51061;45.258;38.112;2022-08-01T01:18:02;24.60;60.30
64650;HTU21D;51061;45.258;38.112;2022-08-01T01:20:37;24.61;60.53
64650;HTU21D;51061;45.258;38.112;2022-08-01T01:29:05;24.54;60.60
64650;HTU21D;51061;45.258;38.112;2022-08-01T01:31:43;24.55;60.71
64650;HTU21D;51061;45.258;38.112;2022-08-01T01:34:12;24.54;60.83
64650;HTU21D;51061;45.258;38.112;2022-08-01T01:36:40;24.54;60.93
64650;HTU21D;51061;45.258;38.112;2022-08-01T01:39:06;24.54;60.99
64650;HTU21D;51061;45.258;38.112;2022-08-01T01:41:35;24.53;60.93
64650;HTU21D;51061;45.258;38.112;2022-08-01T01:44:04;24.54;60.97
64650;HTU21D;51061;45.258;38.112;2022-08-01T01:46:31;24.54;60.92
64650;HTU21D;51061;45.258;38.112;2022-08-01T01:48:58;24.51;60.97
64650;HTU21D;51061;45.258;38.112;2022-08-01T01:51:25;24.48;60.97
64650;HTU21D;51061;45.258;38.112;2022-08-01T01:53:56;24.47;61.09
64650;HTU21D;51061;45.258;38.112;2022-08-01T01:56:24;24.46;61.25
64650;HTU21D;51061;45.258;38.112;2022-08-01T01:58:54;24.42;61.28
64650;HTU21D;51061;45.258;38.112;2022-08-01T02:01:23;24.39;61.39
64650;HTU21D;51061;45.258;38.112;2022-08-01T02:03:52;24.33;61.52
64650;HTU21D;51061;45.258;38.112;2022-08-01T02:06:20;24.30;61.70
64650;HTU21D;51061;45.258;38.112;2022-08-01T02:08:47;24.27;61.85
64650;HTU21D;51061;45.258;38.112;2022-08-01T02:11:14;24.24;61.99
64650;HTU21D;51061;45.258;38.112;2022-08-01T02:13:59;24.19;62.05
64650;HTU21D;51061;45.258;38.112;2022-08-01T02:16:29;24.16;62.28
64650;HTU21D;51061;45.258;38.112;2022-08-01T02:18:55;24.15;62.49
64650;HTU21D;51061;45.258;38.112;2022-08-01T02:21:32;24.12;62.41
64650;HTU21D;51061;45.258;38.112;2022-08-01T02:24:42;24.11;62.55
64650;HTU21D;51061;45.258;38.112;2022-08-01T02:27:01;24.09;62.73
64650;HTU21D;51061;45.258;38.112;2022-08-01T02:30:00;24.00;62.63
64650;HTU21D;51061;45.258;38.112;2022-08-01T02:32:31;24.03;62.93
64650;HTU21D;51061;45.258;38.112;2022-08-01T02:35:00;24.03;63.14
64650;HTU21D;51061;45.258;38.112;2022-08-01T02:37:31;24.02;63.16
64650;HTU21D;51061;45.258;38.112;2022-08-01T02:40:00;24.02;63.22
64650;HTU21D;51061;45.258;38.112;2022-08-01T02:42:28;24.03;63.34
64650;HTU21D;51061;45.258;38.112;2022-08-01T02:44:56;24.03;63.47
64650;HTU21D;51061;45.258;38.112;2022-08-01T02:47:25;24.05;63.44
64650;HTU21D;51061;45.258;38.112;2022-08-01T02:49:52;24.04;63.37
64650;HTU21D;51061;45.258;38.112;2022-08-01T02:52:21;24.04;63.40
64650;HTU21D;51061;45.258;38.112;2022-08-01T02:54:51;24.04;63.44
64650;HTU21D;51061;45.258;38.112;2022-08-01T02:57:20;24.04;63.47
64650;HTU21D;51061;45.258;38.112;2022-08-01T02:59:47;24.04;63.53
64650;HTU21D;51061;45.258;38.112;2022-08-01T03:02:15;24.06;63.53
64650;HTU21D;51061;45.258;38.112;2022-08-01T03:04:42;24.08;63.52
64650;HTU21D;51061;45.258;38.112;2022-08-01T03:07:10;24.09;63.50
64650;HTU21D;51061;45.258;38.112;2022-08-01T03:09:43;24.09;63.45
64650;HTU21D;51061;45.258;38.112;2022-08-01T03:12:16;24.12;63.56
64650;HTU21D;51061;45.258;38.112;2022-08-01T03:14:44;24.13;63.65
64650;HTU21D;51061;45.258;38.112;2022-08-01T03:17:12;24.17;63.73
64650;HTU21D;51061;45.258;38.112;2022-08-01T03:19:39;24.20;63.73
64650;HTU21D;51061;45.258;38.112;2022-08-01T03:22:10;24.24;63.61
64650;HTU21D;51061;45.258;38.112;2022-08-01T03:24:39;24.29;63.66
64650;HTU21D;51061;45.258;38.112;2022-08-01T03:27:07;24.32;63.64
64650;HTU21D;51061;45.258;38.112;2022-08-01T03:29:34;24.36;63.65
64650;HTU21D;51061;45.258;38.112;2022-08-01T03:32:01;24.41;63.73
64650;HTU21D;51061;45.258;38.112;2022-08-01T03:34:28;24.48;63.85
64650;HTU21D;51061;45.258;38.112;2022-08-01T03:37:05;24.54;63.65
64650;HTU21D;51061;45.258;38.112;2022-08-01T03:39:42;24.61;63.54
64650;HTU21D;51061;45.258;38.112;2022-08-01T03:42:16;24.68;63.56
64650;HTU21D;51061;45.258;38.112;2022-08-01T03:44:49;24.74;63.50
64650;HTU21D;51061;45.258;38.112;2022-08-01T03:47:19;24.82;63.54
64650;HTU21D;51061;45.258;38.112;2022-08-01T03:49:48;24.89;63.46
64650;HTU21D;51061;45.258;38.112;2022-08-01T03:52:15;24.95;63.56
64650;HTU21D;51061;45.258;38.112;2022-08-01T03:54:46;25.05;63.58
64650;HTU21D;51061;45.258;38.112;2022-08-01T03:57:13;25.13;63.58
64650;HTU21D;51061;45.258;38.112;2022-08-01T03:59:40;25.22;63.56
64650;HTU21D;51061;45.258;38.112;2022-08-01T04:02:07;25.32;63.51
64650;HTU21D;51061;45.258;38.112;2022-08-01T04:04:33;25.40;63.49
64650;HTU21D;51061;45.258;38.112;2022-08-01T04:07:00;25.45;63.58
64650;HTU21D;51061;45.258;38.112;2022-08-01T04:09:32;25.52;63.59
64650;HTU21D;51061;45.258;38.112;2022-08-01T04:11:59;25.61;63.57
64650;HTU21D;51061;45.258;38.112;2022-08-01T04:14:27;25.68;63.66
64650;HTU21D;51061;45.258;38.112;2022-08-01T04:16:54;25.75;63.65
64650;HTU21D;51061;45.258;38.112;2022-08-01T04:19:21;25.84;63.62
64650;HTU21D;51061;45.258;38.112;2022-08-01T04:21:47;25.94;63.58
64650;HTU21D;51061;45.258;38.112;2022-08-01T04:24:16;26.03;63.57
64650;HTU21D;51061;45.258;38.112;2022-08-01T04:26:45;26.08;63.60
64650;HTU21D;51061;45.258;38.112;2022-08-01T04:29:14;26.16;63.57
64650;HTU21D;51061;45.258;38.112;2022-08-01T04:31:43;26.24;63.58
64650;HTU21D;51061;45.258;38.112;2022-08-01T04:34:12;26.36;63.47
64650;HTU21D;51061;45.258;38.112;2022-08-01T04:36:40;26.47;63.38
64650;HTU21D;51061;45.258;38.112;2022-08-01T04:39:10;26.53;63.37
64650;HTU21D;51061;45.258;38.112;2022-08-01T04:41:38;26.61;63.36
64650;HTU21D;51061;45.258;38.112;2022-08-01T04:44:04;26.69;63.27
64650;HTU21D;51061;45.258;38.112;2022-08-01T04:46:31;26.79;63.18
64650;HTU21D;51061;45.258;38.112;2022-08-01T04:48:59;26.90;63.10
64650;HTU21D;51061;45.258;38.112;2022-08-01T04:51:26;26.99;62.98
64650;HTU21D;51061;45.258;38.112;2022-08-01T04:53:52;27.09;62.86
64650;HTU21D;51061;45.258;38.112;2022-08-01T04:56:19;27.16;62.87
64650;HTU21D;51061;45.258;38.112;2022-08-01T04:58:46;27.25;62.67
64650;HTU21D;51061;45.258;38.112;2022-08-01T05:01:12;27.31;62.59
64650;HTU21D;51061;45.258;38.112;2022-08-01T05:03:38;27.37;62.65
64650;HTU21D;51061;45.258;38.112;2022-08-01T05:06:06;27.42;62.66
64650;HTU21D;51061;45.258;38.112;2022-08-01T05:08:32;27.47;62.64
64650;HTU21D;51061;45.258;38.112;2022-08-01T05:10:58;27.56;62.61
64650;HTU21D;51061;45.258;38.112;2022-08-01T05:13:24;27.68;62.37
64650;HTU21D;51061;45.258;38.112;2022-08-01T05:15:51;27.75;62.27
64650;HTU21D;51061;45.258;38.112;2022-08-01T05:18:18;27.84;62.20
64650;HTU21D;51061;45.258;38.112;2022-08-01T05:20:44;27.97;62.04
64650;HTU21D;51061;45.258;38.112;2022-08-01T05:23:10;28.11;61.89
64650;HTU21D;51061;45.258;38.112;2022-08-01T05:25:36;28.19;61.75
64650;HTU21D;51061;45.258;38.112;2022-08-01T05:28:04;28.29;61.59
64650;HTU21D;51061;45.258;38.112;2022-08-01T05:30:30;28.32;61.63
64650;HTU21D;51061;45.258;38.112;2022-08-01T05:32:56;28.42;61.44
64650;HTU21D;51061;45.258;38.112;2022-08-01T05:35:22;28.53;61.27
64650;HTU21D;51061;45.258;38.112;2022-08-01T05:37:48;28.61;61.05
64650;HTU21D;51061;45.258;38.112;2022-08-01T05:40:14;28.70;60.88
64650;HTU21D;51061;45.258;38.112;2022-08-01T05:42:40;28.86;60.57
64650;HTU21D;51061;45.258;38.112;2022-08-01T05:45:07;29.02;60.22
64650;HTU21D;51061;45.258;38.112;2022-08-01T05:47:33;29.13;59.68
64650;HTU21D;51061;45.258;38.112;2022-08-01T05:49:59;29.23;59.49
64650;HTU21D;51061;45.258;38.112;2022-08-01T05:52:25;29.33;59.55
64650;HTU21D;51061;45.258;38.112;2022-08-01T05:54:51;29.39;59.35
64650;HTU21D;51061;45.258;38.112;2022-08-01T05:57:17;29.39;59.48
64650;HTU21D;51061;45.258;38.112;2022-08-01T05:59:43;29.47;59.41
64650;HTU21D;51061;45.258;38.112;2022-08-01T06:02:09;29.61;59.22
64650;HTU21D;51061;45.258;38.112;2022-08-01T06:04:35;29.77;58.83
64650;HTU21D;51061;45.258;38.112;2022-08-01T06:07:02;29.93;58.53
64650;HTU21D;51061;45.258;38.112;2022-08-01T06:09:28;30.08;58.14
64650;HTU21D;51061;45.258;38.112;2022-08-01T06:11:54;30.18;57.67
64650;HTU21D;51061;45.258;38.112;2022-08-01T06:14:20;30.26;57.47
64650;HTU21D;51061;45.258;38.112;2022-08-01T06:16:46;30.31;57.29
64650;HTU21D;51061;45.258;38.112;2022-08-01T06:19:12;30.27;57.13
64650;HTU21D;51061;45.258;38.112;2022-08-01T06:21:38;30.25;57.25
64650;HTU21D;51061;45.258;38.112;2022-08-01T06:24:05;30.32;57.18
64650;HTU21D;51061;45.258;38.112;2022-08-01T06:26:31;30.40;57.08
64650;HTU21D;51061;45.258;38.112;2022-08-01T06:28:58;30.53;56.66
64650;HTU21D;51061;45.258;38.112;2022-08-01T06:31:24;30.66;56.43
64650;HTU21D;51061;45.258;38.112;2022-08-01T06:33:50;30.69;56.22
64650;HTU21D;51061;45.258;38.112;2022-08-01T06:36:16;30.68;56.36
64650;HTU21D;51061;45.258;38.112;2022-08-01T06:38:42;30.60;56.55
64650;HTU21D;51061;45.258;38.112;2022-08-01T06:41:08;30.40;57.16
64650;HTU21D;51061;45.258;38.112;2022-08-01T06:43:34;30.39;57.08
64650;HTU21D;51061;45.258;38.112;2022-08-01T06:46:00;30.48;56.95
64650;HTU21D;51061;45.258;38.112;2022-08-01T06:48:26;30.68;56.63
64650;HTU21D;51061;45.258;38.112;2022-08-01T06:50:52;30.79;56.34
64650;HTU21D;51061;45.258;38.112;2022-08-01T06:53:34;30.87;56.16
64650;HTU21D;51061;45.258;38.112;2022-08-01T06:56:01;31.00;55.70
64650;HTU21D;51061;45.258;38.112;2022-08-01T06:58:27;31.12;55.38
64650;HTU21D;51061;45.258;38.112;2022-08-01T07:00:53;31.31;55.00
64650;HTU21D;51061;45.258;38.112;2022-08-01T07:03:19;31.40;54.67
64650;HTU21D;51061;45.258;38.112;2022-08-01T07:05:45;31.44;54.51
64650;HTU21D;51061;45.258;38.112;2022-08-01T07:08:11;31.49;54.32
64650;HTU21D;51061;45.258;38.112;2022-08-01T07:10:37;31.57;54.03
64650;HTU21D;51061;45.258;38.112;2022-08-01T07:13:03;31.50;54.19
64650;HTU21D;51061;45.258;38.112;2022-08-01T07:15:29;31.50;54.39
64650;HTU21D;51061;45.258;38.112;2022-08-01T07:17:55;31.67;54.10
64650;HTU21D;51061;45.258;38.112;2022-08-01T07:20:22;31.86;53.86
64650;HTU21D;51061;45.258;38.112;2022-08-01T07:22:48;32.12;53.46
64650;HTU21D;51061;45.258;38.112;2022-08-01T07:25:14;32.29;52.91
64650;HTU21D;51061;45.258;38.112;2022-08-01T07:27:41;32.50;52.35
64650;HTU21D;51061;45.258;38.112;2022-08-01T07:30:07;32.68;51.93
64650;HTU21D;51061;45.258;38.112;2022-08-01T07:32:33;32.84;51.49
64650;HTU21D;51061;45.258;38.112;2022-08-01T07:35:01;32.97;51.20
64650;HTU21D;51061;45.258;38.112;2022-08-01T07:37:27;33.18;50.65
64650;HTU21D;51061;45.258;38.112;2022-08-01T07:39:53;33.30;50.28
64650;HTU21D;51061;45.258;38.112;2022-08-01T07:42:19;33.27;50.22
64650;HTU21D;51061;45.258;38.112;2022-08-01T07:44:45;33.38;50.07
64650;HTU21D;51061;45.258;38.112;2022-08-01T07:47:11;33.45;49.92
64650;HTU21D;51061;45.258;38.112;2022-08-01T07:49:37;33.58;49.70
64650;HTU21D;51061;45.258;38.112;2022-08-01T07:52:03;33.65;49.34
64650;HTU21D;51061;45.258;38.112;2022-08-01T07:54:32;33.72;49.21
64650;HTU21D;51061;45.258;38.112;2022-08-01T07:56:58;33.78;49.18
64650;HTU21D;51061;45.258;38.112;2022-08-01T07:59:25;33.87;49.06
64650;HTU21D;51061;45.258;38.112;2022-08-01T08:01:51;34.11;48.47
64650;HTU21D;51061;45.258;38.112;2022-08-01T08:04:17;34.30;48.11
64650;HTU21D;51061;45.258;38.112;2022-08-01T08:06:44;34.48;47.82
64650;HTU21D;51061;45.258;38.112;2022-08-01T08:09:10;34.65;47.45
64650;HTU21D;51061;45.258;38.112;2022-08-01T08:11:37;34.76;47.29
64650;HTU21D;51061;45.258;38.112;2022-08-01T08:14:03;34.83;46.39
64650;HTU21D;51061;45.258;38.112;2022-08-01T08:16:29;34.81;46.30
64650;HTU21D;51061;45.258;38.112;2022-08-01T08:18:55;34.84;45.92
64650;HTU21D;51061;45.258;38.112;2022-08-01T08:21:21;35.10;45.38
64650;HTU21D;51061;45.258;38.112;2022-08-01T08:23:47;35.85;43.64
64650;HTU21D;51061;45.258;38.112;2022-08-01T08:26:32;36.33;42.10
64650;HTU21D;51061;45.258;38.112;2022-08-01T08:28:58;36.71;40.73
64650;HTU21D;51061;45.258;38.112;2022-08-01T08:31:24;37.14;39.64
64650;HTU21D;51061;45.258;38.112;2022-08-01T08:33:50;37.62;38.53
64650;HTU21D;51061;45.258;38.112;2022-08-01T08:36:16;37.66;38.11
64650;HTU21D;51061;45.258;38.112;2022-08-01T08:38:42;37.54;38.00
64650;HTU21D;51061;45.258;38.112;2022-08-01T08:41:08;37.63;37.89
64650;HTU21D;51061;45.258;38.112;2022-08-01T08:43:35;37.45;38.05
64650;HTU21D;51061;45.258;38.112;2022-08-01T08:46:01;37.10;38.61
64650;HTU21D;51061;45.258;38.112;2022-08-01T08:48:28;37.34;37.93
64650;HTU21D;51061;45.258;38.112;2022-08-01T08:50:56;37.35;37.79
64650;HTU21D;51061;45.258;38.112;2022-08-01T08:53:23;37.10;38.30
64650;HTU21D;51061;45.258;38.112;2022-08-01T08:55:50;37.06;38.76
64650;HTU21D;51061;45.258;38.112;2022-08-01T08:58:18;37.79;37.45
64650;HTU21D;51061;45.258;38.112;2022-08-01T09:00:45;38.12;36.95
64650;HTU21D;51061;45.258;38.112;2022-08-01T09:03:12;37.74;37.56
64650;HTU21D;51061;45.258;38.112;2022-08-01T09:05:38;37.20;38.43
64650;HTU21D;51061;45.258;38.112;2022-08-01T09:08:07;36.64;39.28
64650;HTU21D;51061;45.258;38.112;2022-08-01T09:10:34;36.12;40.26
64650;HTU21D;51061;45.258;38.112;2022-08-01T09:13:11;35.68;41.11
64650;HTU21D;51061;45.258;38.112;2022-08-01T09:15:49;35.42;41.58
64650;HTU21D;51061;45.258;38.112;2022-08-01T09:18:38;35.37;41.90
64650;HTU21D;51061;45.258;38.112;2022-08-01T09:21:21;35.22;42.13
64650;HTU21D;51061;45.258;38.112;2022-08-01T09:23:51;35.24;42.29
64650;HTU21D;51061;45.258;38.112;2022-08-01T09:26:27;35.37;42.32
64650;HTU21D;51061;45.258;38.112;2022-08-01T09:28:56;35.66;41.74
64650;HTU21D;51061;45.258;38.112;2022-08-01T09:31:22;36.27;40.65
64650;HTU21D;51061;45.258;38.112;2022-08-01T09:33:59;36.63;40.10
64650;HTU21D;51061;45.258;38.112;2022-08-01T09:36:57;37.40;38.97
64650;HTU21D;51061;45.258;38.112;2022-08-01T09:39:35;37.49;38.34
64650;HTU21D;51061;45.258;38.112;2022-08-01T09:42:22;37.08;39.19
64650;HTU21D;51061;45.258;38.112;2022-08-01T09:44:49;36.81;39.79
64650;HTU21D;51061;45.258;38.112;2022-08-01T09:47:16;36.88;39.87
64650;HTU21D;51061;45.258;38.112;2022-08-01T09:49:54;37.08;39.55
64650;HTU21D;51061;45.258;38.112;2022-08-01T09:52:22;37.16;39.20
64650;HTU21D;51061;45.258;38.112;2022-08-01T09:55:14;37.93;38.17
64650;HTU21D;51061;45.258;38.112;2022-08-01T09:57:56;37.81;38.50
64650;HTU21D;51061;45.258;38.112;2022-08-01T10:00:23;37.85;38.25
64650;HTU21D;51061;45.258;38.112;2022-08-01T10:02:49;37.51;38.62
64650;HTU21D;51061;45.258;38.112;2022-08-01T10:05:15;37.55;38.62
64650;HTU21D;51061;45.258;38.112;2022-08-01T10:08:02;38.67;36.75
64650;HTU21D;51061;45.258;38.112;2022-08-01T10:10:30;38.12;37.52
64650;HTU21D;51061;45.258;38.112;2022-08-01T10:12:58;37.97;37.86
64650;HTU21D;51061;45.258;38.112;2022-08-01T10:15:26;38.01;37.91
64650;HTU21D;51061;45.258;38.112;2022-08-01T10:17:54;38.43;37.24
64650;HTU21D;51061;45.258;38.112;2022-08-01T10:20:24;39.19;36.09
64650;HTU21D;51061;45.258;38.112;2022-08-01T10:22:52;39.50;35.38
64650;HTU21D;51061;45.258;38.112;2022-08-01T10:25:20;39.29;35.61
64650;HTU21D;51061;45.258;38.112;2022-08-01T10:27:48;38.74;36.34
64650;HTU21D;51061;45.258;38.112;2022-08-01T10:30:15;38.20;37.37
64650;HTU21D;51061;45.258;38.112;2022-08-01T10:32:42;38.58;36.49
64650;HTU21D;51061;45.258;38.112;2022-08-01T10:35:11;38.83;35.86
64650;HTU21D;51061;45.258;38.112;2022-08-01T10:37:45;39.26;35.09
64650;HTU21D;51061;45.258;38.112;2022-08-01T10:40:16;39.61;34.53
64650;HTU21D;51061;45.258;38.112;2022-08-01T10:42:44;39.61;34.73
64650;HTU21D;51061;45.258;38.112;2022-08-01T10:45:15;39.65;34.41
64650;HTU21D;51061;45.258;38.112;2022-08-01T10:53:17;40.46;32.84
64650;HTU21D;51061;45.258;38.112;2022-08-01T10:58:31;39.95;33.02
64650;HTU21D;51061;45.258;38.112;2022-08-01T11:01:32;39.99;33.29
64650;HTU21D;51061;45.258;38.112;2022-08-01T11:04:08;40.17;32.75
64650;HTU21D;51061;45.258;38.112;2022-08-01T11:09:24;39.51;33.67
64650;HTU21D;51061;45.258;38.112;2022-08-01T11:12:07;39.71;33.43
64650;HTU21D;51061;45.258;38.112;2022-08-01T11:30:45;35.14;43.97
64650;HTU21D;51061;45.258;38.112;2022-08-01T11:33:12;34.69;44.74
64650;HTU21D;51061;45.258;38.112;2022-08-01T11:38:44;34.77;44.57
64650;HTU21D;51061;45.258;38.112;2022-08-01T11:44:03;34.70;44.94
64650;HTU21D;51061;45.258;38.112;2022-08-01T11:47:06;34.61;44.94
64650;HTU21D;51061;45.258;38.112;2022-08-01T11:52:25;34.78;44.77
64650;HTU21D;51061;45.258;38.112;2022-08-01T11:54:54;34.81;44.48
64650;HTU21D;51061;45.258;38.112;2022-08-01T11:57:23;34.74;44.70
64650;HTU21D;51061;45.258;38.112;2022-08-01T11:59:55;34.71;44.58
64650;HTU21D;51061;45.258;38.112;2022-08-01T12:02:32;34.79;44.17
64650;HTU21D;51061;45.258;38.112;2022-08-01T12:05:09;34.81;44.02
64650;HTU21D;51061;45.258;38.112;2022-08-01T12:07:37;34.61;44.36
64650;HTU21D;51061;45.258;38.112;2022-08-01T12:10:18;34.55;43.91
64650;HTU21D;51061;45.258;38.112;2022-08-01T12:12:48;34.49;44.03
64650;HTU21D;51061;45.258;38.112;2022-08-01T12:15:16;34.41;44.13
64650;HTU21D;51061;45.258;38.112;2022-08-01T12:20:14;34.33;43.54
64650;HTU21D;51061;45.258;38.112;2022-08-01T12:22:41;34.26;43.48
64650;HTU21D;51061;45.258;38.112;2022-08-01T12:25:12;34.25;43.20
64650;HTU21D;51061;45.258;38.112;2022-08-01T12:27:41;34.24;43.12
64650;HTU21D;51061;45.258;38.112;2022-08-01T12:30:10;34.24;42.87
64650;HTU21D;51061;45.258;38.112;2022-08-01T12:32:38;34.24;42.84
64650;HTU21D;51061;45.258;38.112;2022-08-01T12:35:16;34.15;43.06
64650;HTU21D;51061;45.258;38.112;2022-08-01T12:37:47;34.07;42.77
64650;HTU21D;51061;45.258;38.112;2022-08-01T12:42:58;33.86;43.05
64650;HTU21D;51061;45.258;38.112;2022-08-01T12:45:26;33.80;43.30
64650;HTU21D;51061;45.258;38.112;2022-08-01T12:47:53;33.86;43.16
64650;HTU21D;51061;45.258;38.112;2022-08-01T12:50:22;33.86;43.10
64650;HTU21D;51061;45.258;38.112;2022-08-01T12:52:49;33.88;42.87
64650;HTU21D;51061;45.258;38.112;2022-08-01T12:55:23;33.76;42.74
64650;HTU21D;51061;45.258;38.112;2022-08-01T12:58:12;33.75;43.05
64650;HTU21D;51061;45.258;38.112;2022-08-01T13:00:40;33.75;43.16
64650;HTU21D;51061;45.258;38.112;2022-08-01T13:03:10;33.70;43.22
64650;HTU21D;51061;45.258;38.112;2022-08-01T13:05:57;33.66;43.39
64650;HTU21D;51061;45.258;38.112;2022-08-01T13:08:33;33.51;43.56
64650;HTU21D;51061;45.258;38.112;2022-08-01T13:11:10;33.35;44.03
64650;HTU21D;51061;45.258;38.112;2022-08-01T13:13:47;33.15;44.38
64650;HTU21D;51061;45.258;38.112;2022-08-01T13:16:19;33.00;44.88
64650;HTU21D;51061;45.258;38.112;2022-08-01T13:18:49;32.85;45.41
64650;HTU21D;51061;45.258;38.112;2022-08-01T13:21:19;32.76;45.33
64650;HTU21D;51061;45.258;38.112;2022-08-01T13:24:08;32.57;45.56
64650;HTU21D;51061;45.258;38.112;2022-08-01T13:26:49;32.52;45.57
64650;HTU21D;51061;45.258;38.112;2022-08-01T13:29:17;32.44;45.51
64650;HTU21D;51061;45.258;38.112;2022-08-01T13:31:43;32.44;45.48
64650;HTU21D;51061;45.258;38.112;2022-08-01T13:34:10;32.54;44.58
64650;HTU21D;51061;45.258;38.112;2022-08-01T13:36:37;32.53;44.28
64650;HTU21D;51061;45.258;38.112;2022-08-01T13:39:04;32.50;44.61
64650;HTU21D;51061;45.258;38.112;2022-08-01T13:41:50;32.45;44.91
64650;HTU21D;51061;45.258;38.112;2022-08-01T13:44:16;32.43;45.29
64650;HTU21D;51061;45.258;38.112;2022-08-01T13:46:43;32.49;45.45
64650;HTU21D;51061;45.258;38.112;2022-08-01T13:49:10;32.47;45.68
64650;HTU21D;51061;45.258;38.112;2022-08-01T13:51:37;32.49;46.01
64650;HTU21D;51061;45.258;38.112;2022-08-01T13:54:04;32.48;46.32
64650;HTU21D;51061;45.258;38.112;2022-08-01T13:56:31;32.42;46.34
64650;HTU21D;51061;45.258;38.112;2022-08-01T13:58:58;32.41;46.51
64650;HTU21D;51061;45.258;38.112;2022-08-01T14:01:24;32.40;46.35
64650;HTU21D;51061;45.258;38.112;2022-08-01T14:03:51;32.35;46.22
64650;HTU21D;51061;45.258;38.112;2022-08-01T14:06:19;32.28;46.19
64650;HTU21D;51061;45.258;38.112;2022-08-01T14:08:48;32.22;46.51
64650;HTU21D;51061;45.258;38.112;2022-08-01T14:11:14;32.22;46.75
64650;HTU21D;51061;45.258;38.112;2022-08-01T14:13:40;32.16;47.05
64650;HTU21D;51061;45.258;38.112;2022-08-01T14:16:07;32.15;47.25
64650;HTU21D;51061;45.258;38.112;2022-08-01T14:18:33;32.09;47.56
64650;HTU21D;51061;45.258;38.112;2022-08-01T14:20:59;32.03;47.86
64650;HTU21D;51061;45.258;38.112;2022-08-01T14:23:26;31.92;48.27
64650;HTU21D;51061;45.258;38.112;2022-08-01T14:25:52;31.85;48.64
64650;HTU21D;51061;45.258;38.112;2022-08-01T14:28:17;31.79;48.92
64650;HTU21D;51061;45.258;38.112;2022-08-01T14:30:44;31.72;49.31
64650;HTU21D;51061;45.258;38.112;2022-08-01T14:33:11;31.69;49.64
64650;HTU21D;51061;45.258;38.112;2022-08-01T14:35:38;31.65;49.73
64650;HTU21D;51061;45.258;38.112;2022-08-01T14:38:04;31.59;49.91
64650;HTU21D;51061;45.258;38.112;2022-08-01T14:40:30;31.60;50.03
64650;HTU21D;51061;45.258;38.112;2022-08-01T14:42:56;31.63;49.92
64650;HTU21D;51061;45.258;38.112;2022-08-01T14:45:22;31.63;50.10
64650;HTU21D;51061;45.258;38.112;2022-08-01T14:47:48;31.59;50.21
64650;HTU21D;51061;45.258;38.112;2022-08-01T14:50:15;31.50;50.34
64650;HTU21D;51061;45.258;38.112;2022-08-01T14:52:42;31.38;50.45
64650;HTU21D;51061;45.258;38.112;2022-08-01T14:55:10;31.26;50.72
64650;HTU21D;51061;45.258;38.112;2022-08-01T14:57:37;31.13;51.07
64650;HTU21D;51061;45.258;38.112;2022-08-01T15:00:06;31.04;51.54
64650;HTU21D;51061;45.258;38.112;2022-08-01T15:02:32;30.98;51.85
64650;HTU21D;51061;45.258;38.112;2022-08-01T15:04:58;30.92;52.12
64650;HTU21D;51061;45.258;38.112;2022-08-01T15:07:24;30.87;52.33
64650;HTU21D;51061;45.258;38.112;2022-08-01T15:09:50;30.83;52.61
64650;HTU21D;51061;45.258;38.112;2022-08-01T15:12:16;30.79;53.14
64650;HTU21D;51061;45.258;38.112;2022-08-01T15:14:42;30.80;53.85
64650;HTU21D;51061;45.258;38.112;2022-08-01T15:17:24;30.77;54.20
64650;HTU21D;51061;45.258;38.112;2022-08-01T15:19:52;30.75;54.39
64650;HTU21D;51061;45.258;38.112;2022-08-01T15:22:19;30.69;54.40
64650;HTU21D;51061;45.258;38.112;2022-08-01T15:24:47;30.67;54.45
64650;HTU21D;51061;45.258;38.112;2022-08-01T15:27:13;30.60;54.63
64650;HTU21D;51061;45.258;38.112;2022-08-01T15:29:40;30.56;55.02
64650;HTU21D;51061;45.258;38.112;2022-08-01T15:32:08;30.52;55.11
64650;HTU21D;51061;45.258;38.112;2022-08-01T15:34:35;30.46;55.51
64650;HTU21D;51061;45.258;38.112;2022-08-01T15:37:02;30.39;55.93
64650;HTU21D;51061;45.258;38.112;2022-08-01T15:39:29;30.31;56.15
64650;HTU21D;51061;45.258;38.112;2022-08-01T15:41:58;30.26;56.16
64650;HTU21D;51061;45.258;38.112;2022-08-01T15:44:24;30.23;56.19
64650;HTU21D;51061;45.258;38.112;2022-08-01T15:46:50;30.17;56.35
64650;HTU21D;51061;45.258;38.112;2022-08-01T15:49:17;30.11;56.39
64650;HTU21D;51061;45.258;38.112;2022-08-01T15:51:43;30.07;56.51
64650;HTU21D;51061;45.258;38.112;2022-08-01T15:54:10;30.07;56.54
64650;HTU21D;51061;45.258;38.112;2022-08-01T15:56:37;30.02;56.58
64650;HTU21D;51061;45.258;38.112;2022-08-01T15:59:03;30.00;56.62
64650;HTU21D;51061;45.258;38.112;2022-08-01T16:01:29;29.98;56.51
64650;HTU21D;51061;45.258;38.112;2022-08-01T16:03:56;29.96;56.39